Time;durP1;ratioP1;P1;durP2;ratioP2;P2;SDS_P1;SDS_P2;PMS_P1;PMS_P2;Temp;Humidity;BMP_temperature;BMP_pressure;BME280_temperature;BME280_humidity;BME280_pressure;Samples;Min_cycle;Max_cycle;Signal;HPM_P1;HPM_P2
2023/08/19 00:01:35;;;;;;;5.17;4.50;;;20.10;99.90;;;;;;5092159;28;20450;-66
2023/08/19 00:04:03;;;;;;;4.30;3.90;;;20.20;99.90;;;;;;5090724;28;20444;-66
2023/08/19 00:06:38;;;;;;;4.53;4.10;;;20.30;99.90;;;;;;5091933;28;20511;-66
2023/08/19 00:09:08;;;;;;;7.03;4.50;;;20.30;99.90;;;;;;5091873;28;20450;-66
2023/08/19 00:11:39;;;;;;;5.53;4.93;;;20.40;99.90;;;;;;5091497;28;20443;-66
2023/08/19 00:14:08;;;;;;;5.20;4.27;;;20.30;99.90;;;;;;5090694;28;20438;-66
2023/08/19 00:16:36;;;;;;;10.10;4.10;;;20.20;99.90;;;;;;5091426;28;20505;-66
2023/08/19 00:19:04;;;;;;;4.37;3.80;;;20.20;99.90;;;;;;5091423;28;20520;-66
2023/08/19 00:21:32;;;;;;;5.13;4.63;;;20.20;99.90;;;;;;5091025;28;20944;-66
2023/08/19 00:24:01;;;;;;;5.80;4.43;;;20.10;99.90;;;;;;5089266;28;20446;-67
2023/08/19 00:26:30;;;;;;;4.40;4.00;;;20.10;99.90;;;;;;5091378;28;20468;-67
2023/08/19 00:28:58;;;;;;;6.37;3.90;;;20.00;99.90;;;;;;5091510;28;20492;-66
2023/08/19 00:31:27;;;;;;;5.40;4.77;;;20.10;99.90;;;;;;5091286;28;20445;-67
2023/08/19 00:33:55;;;;;;;5.47;4.33;;;20.00;99.90;;;;;;5089741;28;20968;-67
2023/08/19 00:36:23;;;;;;;5.30;4.63;;;19.90;99.90;;;;;;5090841;28;20492;-67
2023/08/19 00:38:51;;;;;;;5.10;3.77;;;19.80;99.90;;;;;;5090779;28;20496;-66
2023/08/19 00:41:22;;;;;;;5.10;4.00;;;19.70;99.90;;;;;;5091180;28;20453;-67
2023/08/19 00:43:50;;;;;;;6.10;4.70;;;19.70;99.90;;;;;;5089742;28;20522;-67
2023/08/19 00:46:18;;;;;;;4.67;3.97;;;19.70;99.90;;;;;;5090677;28;20546;-67
2023/08/19 00:48:46;;;;;;;5.97;5.17;;;19.60;99.90;;;;;;5090367;28;20452;-67
2023/08/19 00:51:16;;;;;;;4.73;4.33;;;19.60;99.90;;;;;;5090630;28;20434;-67
2023/08/19 00:53:45;;;;;;;6.10;4.40;;;19.80;99.90;;;;;;5089554;28;20926;-67
2023/08/19 00:56:13;;;;;;;5.30;4.20;;;19.70;99.90;;;;;;5090623;28;20462;-66
2023/08/19 00:58:43;;;;;;;6.40;4.50;;;19.70;99.90;;;;;;5090371;28;20446;-67
2023/08/19 01:01:11;;;;;;;5.10;4.60;;;19.60;99.90;;;;;;5090691;28;20801;-66
2023/08/19 01:03:40;;;;;;;6.50;4.53;;;19.60;99.90;;;;;;5089267;28;20446;-67
2023/08/19 01:06:23;;;;;;;5.60;4.60;;;19.50;99.90;;;;;;5090508;28;20801;-67
2023/08/19 01:09:01;;;;;;;6.20;4.10;;;19.40;99.90;;;;;;5090360;28;20801;-65
2023/08/19 01:11:48;;;;;;;6.17;4.50;;;19.40;99.90;;;;;;5090182;28;20473;-66
2023/08/19 01:14:32;;;;;;;4.40;4.00;;;19.40;99.90;;;;;;5089090;28;20449;-67
2023/08/19 01:17:03;;;;;;;6.80;4.77;;;19.40;99.90;;;;;;5090289;28;20573;-66
2023/08/19 01:19:32;;;;;;;7.83;5.03;;;19.40;99.90;;;;;;5090399;28;20491;-66
2023/08/19 01:22:04;;;;;;;5.00;4.50;;;19.40;99.90;;;;;;5090092;28;20447;-67
2023/08/19 01:24:36;;;;;;;5.50;4.23;;;19.50;99.90;;;;;;5089260;28;20438;-66
2023/08/19 01:27:05;;;;;;;6.37;4.23;;;19.40;99.90;;;;;;5090327;28;20560;-66
2023/08/19 01:29:33;;;;;;;5.80;3.93;;;19.40;99.90;;;;;;5090054;28;20450;-66
2023/08/19 01:32:01;;;;;;;6.30;4.77;;;19.40;99.90;;;;;;5089946;28;20817;-65
2023/08/19 01:34:35;;;;;;;5.77;4.60;;;19.30;99.90;;;;;;5089093;28;20451;-67
2023/08/19 01:37:08;;;;;;;5.30;4.80;;;19.30;99.90;;;;;;5089768;28;21017;-67
2023/08/19 01:39:41;;;;;;;5.50;5.10;;;19.30;99.90;;;;;;5090273;28;20785;-66
2023/08/19 01:42:09;;;;;;;7.83;4.73;;;19.30;99.90;;;;;;5089662;28;20466;-65
2023/08/19 01:44:39;;;;;;;7.43;4.60;;;19.20;99.90;;;;;;5089002;28;20441;-66
2023/08/19 01:47:16;;;;;;;7.07;4.70;;;19.10;99.90;;;;;;5089866;28;20442;-67
2023/08/19 01:49:44;;;;;;;4.87;4.37;;;19.10;99.90;;;;;;5089887;28;20440;-66
2023/08/19 01:52:13;;;;;;;5.77;5.00;;;19.10;99.90;;;;;;5089335;28;20822;-66
2023/08/19 01:54:42;;;;;;;5.10;4.53;;;19.10;99.90;;;;;;5089165;28;20497;-66
2023/08/19 01:57:10;;;;;;;7.77;5.83;;;19.20;99.90;;;;;;5089925;28;20478;-67
2023/08/19 01:59:38;;;;;;;6.50;5.93;;;19.20;99.90;;;;;;5090101;28;20491;-64
2023/08/19 02:02:06;;;;;;;5.93;5.33;;;19.10;99.90;;;;;;5088670;28;20846;-64
2023/08/19 02:04:34;;;;;;;6.60;5.90;;;19.00;99.90;;;;;;5088548;28;20955;-65
2023/08/19 02:07:02;;;;;;;6.50;5.60;;;18.90;99.90;;;;;;5089963;28;20455;-66
2023/08/19 02:09:30;;;;;;;6.17;5.23;;;18.80;99.90;;;;;;5089835;28;20515;-66
2023/08/19 02:12:00;;;;;;;4.87;4.40;;;18.80;99.90;;;;;;5089654;28;20820;-67
2023/08/19 02:14:27;;;;;;;5.97;5.00;;;18.80;99.90;;;;;;5088572;28;20513;-67
2023/08/19 02:16:55;;;;;;;7.33;4.83;;;18.80;99.90;;;;;;5089539;28;20462;-67
2023/08/19 02:19:23;;;;;;;5.53;4.40;;;18.80;99.90;;;;;;5089430;28;20438;-66
2023/08/19 02:21:51;;;;;;;6.13;5.53;;;18.90;99.90;;;;;;5089597;28;20442;-66
2023/08/19 02:24:19;;;;;;;6.70;5.67;;;18.80;99.90;;;;;;5088358;28;20447;-67
2023/08/19 02:26:47;;;;;;;5.60;4.93;;;18.80;99.90;;;;;;5089396;28;20463;-67
2023/08/19 02:29:16;;;;;;;7.10;5.00;;;18.70;99.90;;;;;;5089429;28;20579;-66
2023/08/19 02:31:44;;;;;;;6.87;6.07;;;18.70;99.90;;;;;;5089685;28;20514;-67
2023/08/19 02:34:12;;;;;;;6.73;6.03;;;18.70;99.90;;;;;;5088176;28;20451;-67
2023/08/19 02:36:40;;;;;;;6.37;5.50;;;18.70;99.90;;;;;;5089348;28;20492;-66
2023/08/19 02:39:08;;;;;;;6.03;5.07;;;18.70;99.90;;;;;;5089303;28;20474;-67
2023/08/19 02:41:36;;;;;;;5.13;4.63;;;18.70;99.90;;;;;;5089171;28;20468;-67
2023/08/19 02:44:04;;;;;;;7.30;5.13;;;18.70;99.90;;;;;;5088369;28;20851;-67
2023/08/19 02:46:34;;;;;;;8.40;5.70;;;18.70;99.90;;;;;;5091549;28;20458;-66
2023/08/19 02:49:02;;;;;;;6.30;5.70;;;18.60;99.90;;;;;;5092918;28;20430;-66
2023/08/19 02:51:30;;;;;;;6.90;5.43;;;18.50;99.90;;;;;;5093155;28;20829;-66
2023/08/19 02:53:58;;;;;;;7.37;5.50;;;18.50;99.90;;;;;;5091954;28;20438;-67
2023/08/19 02:56:26;;;;;;;6.47;5.83;;;18.50;99.90;;;;;;5093147;28;20523;-67
2023/08/19 02:58:56;;;;;;;7.43;5.53;;;18.40;99.90;;;;;;5092993;28;20538;-66
2023/08/19 03:01:24;;;;;;;8.00;6.10;;;18.50;99.90;;;;;;5093247;28;20717;-67
2023/08/19 03:03:53;;;;;;;7.17;6.47;;;18.50;99.90;;;;;;5091646;28;20434;-65
2023/08/19 03:06:21;;;;;;;7.70;5.90;;;18.60;99.90;;;;;;5092312;28;20466;-66
2023/08/19 03:08:49;;;;;;;6.90;6.20;;;18.70;99.90;;;;;;5092860;28;20952;-67
2023/08/19 03:11:17;;;;;;;6.70;5.73;;;18.70;99.90;;;;;;5092560;28;20435;-66
2023/08/19 03:13:44;;;;;;;6.23;5.50;;;18.60;99.90;;;;;;5091535;28;20545;-66
2023/08/19 03:16:14;;;;;;;7.23;6.30;;;18.50;99.90;;;;;;5092497;28;20466;-66
2023/08/19 03:18:42;;;;;;;6.60;6.00;;;18.50;99.90;;;;;;5092559;28;20865;-66
2023/08/19 03:21:12;;;;;;;8.00;7.23;;;18.50;99.90;;;;;;5092442;28;20438;-67
2023/08/19 03:23:40;;;;;;;7.10;6.40;;;18.30;99.90;;;;;;5091207;28;20452;-66
2023/08/19 03:26:08;;;;;;;10.13;7.07;;;18.30;99.90;;;;;;5092451;28;20534;-67
2023/08/19 03:28:35;;;;;;;7.20;6.60;;;18.30;99.90;;;;;;5092479;28;20442;-68
2023/08/19 03:31:08;;;;;;;8.47;7.20;;;18.20;99.90;;;;;;5092312;28;20478;-67
2023/08/19 03:33:39;;;;;;;7.73;6.90;;;18.20;99.90;;;;;;5090948;28;20439;-67
2023/08/19 03:36:07;;;;;;;10.80;7.37;;;18.20;99.90;;;;;;5092243;28;20466;-66
2023/08/19 03:38:36;;;;;;;7.20;6.40;;;18.20;99.90;;;;;;5091979;28;20569;-66
2023/08/19 03:41:04;;;;;;;8.13;6.50;;;18.20;99.90;;;;;;5092211;28;20493;-67
2023/08/19 03:43:32;;;;;;;7.80;7.00;;;18.10;99.90;;;;;;5090911;28;20446;-66
2023/08/19 03:46:00;;;;;;;7.20;6.50;;;18.10;99.90;;;;;;5091932;28;20462;-66
2023/08/19 03:48:28;;;;;;;7.50;6.80;;;18.00;99.90;;;;;;5091996;28;21092;-67
2023/08/19 03:50:56;;;;;;;7.40;6.63;;;18.00;99.90;;;;;;5091908;28;20452;-67
2023/08/19 03:53:24;;;;;;;6.60;5.73;;;18.00;99.90;;;;;;5091186;28;20445;-66
2023/08/19 03:55:53;;;;;;;7.83;6.97;;;18.10;99.90;;;;;;5092060;28;20852;-67
2023/08/19 03:58:21;;;;;;;8.20;6.40;;;18.00;99.90;;;;;;5090916;28;20481;-66
2023/08/19 04:00:49;;;;;;;6.30;5.70;;;17.90;99.90;;;;;;5092171;28;20483;-67
2023/08/19 04:03:17;;;;;;;9.23;6.40;;;17.90;99.90;;;;;;5091057;28;20438;-66
2023/08/19 04:05:44;;;;;;;7.53;6.67;;;17.80;99.90;;;;;;5091794;28;20561;-67
2023/08/19 04:08:12;;;;;;;7.87;7.17;;;17.70;99.90;;;;;;5091888;28;20427;-66
2023/08/19 04:10:40;;;;;;;6.90;6.20;;;17.90;99.90;;;;;;5091153;28;20511;-67
2023/08/19 04:13:09;;;;;;;7.40;6.70;;;18.00;99.90;;;;;;5090113;28;20442;-66
2023/08/19 04:15:37;;;;;;;8.07;6.13;;;18.00;99.90;;;;;;5091366;28;20947;-67
2023/08/19 04:18:07;;;;;;;8.07;7.27;;;18.00;99.90;;;;;;5091478;28;20495;-67
2023/08/19 04:20:38;;;;;;;9.80;7.63;;;17.90;99.90;;;;;;5091093;28;20524;-66
2023/08/19 04:23:06;;;;;;;8.03;7.00;;;17.80;99.90;;;;;;5090174;28;20473;-66
2023/08/19 04:25:34;;;;;;;7.13;6.37;;;18.00;99.90;;;;;;5091144;28;20460;-67
2023/08/19 04:28:02;;;;;;;7.83;6.10;;;18.10;99.90;;;;;;5091415;28;20466;-66
2023/08/19 04:30:32;;;;;;;8.67;7.00;;;18.10;99.90;;;;;;5091289;28;20438;-66
2023/08/19 04:33:00;;;;;;;9.20;7.00;;;18.20;99.90;;;;;;5089920;28;20460;-66
2023/08/19 04:35:29;;;;;;;8.00;6.10;;;18.10;99.90;;;;;;5090944;28;20454;-67
2023/08/19 04:37:57;;;;;;;8.23;7.07;;;18.10;99.90;;;;;;5090650;28;20936;-66
2023/08/19 04:40:25;;;;;;;8.03;7.33;;;18.20;99.90;;;;;;5090735;28;20484;-66
2023/08/19 04:42:53;;;;;;;8.20;7.10;;;18.30;99.90;;;;;;5090019;28;20519;-65
2023/08/19 04:45:21;;;;;;;9.23;6.83;;;18.20;99.90;;;;;;5090920;28;20500;-66
2023/08/19 04:47:50;;;;;;;6.70;5.90;;;18.10;99.90;;;;;;5090943;28;20481;-67
2023/08/19 04:50:21;;;;;;;6.83;6.13;;;18.10;99.90;;;;;;5090771;28;20435;-66
2023/08/19 04:52:50;;;;;;;6.97;5.53;;;18.00;99.90;;;;;;5089522;28;20525;-66
2023/08/19 04:55:18;;;;;;;7.37;5.87;;;18.20;99.90;;;;;;5089950;28;20553;-66
2023/08/19 04:57:46;;;;;;;7.90;6.13;;;18.30;99.90;;;;;;5090811;28;20444;-66
2023/08/19 05:00:14;;;;;;;9.13;6.97;;;18.30;99.90;;;;;;5090399;28;20489;-66
2023/08/19 05:02:45;;;;;;;9.30;7.13;;;18.20;99.90;;;;;;5089428;28;20439;-65
2023/08/19 05:05:14;;;;;;;7.70;6.30;;;18.20;99.90;;;;;;5090206;28;20732;-66
2023/08/19 05:07:45;;;;;;;7.53;6.77;;;18.10;99.90;;;;;;5090613;28;20898;-66
2023/08/19 05:10:13;;;;;;;7.67;6.87;;;18.10;99.90;;;;;;5089707;28;20687;-67
2023/08/19 05:12:41;;;;;;;7.57;6.77;;;18.20;99.90;;;;;;5089101;28;21002;-66
2023/08/19 05:15:11;;;;;;;7.57;6.97;;;18.20;99.90;;;;;;5090338;28;20461;-68
2023/08/19 05:17:39;;;;;;;7.20;6.20;;;18.30;99.90;;;;;;5090309;28;20442;-67
2023/08/19 05:20:08;;;;;;;6.47;5.90;;;18.30;99.90;;;;;;5090029;28;20489;-66
2023/08/19 05:22:38;;;;;;;6.90;6.20;;;18.40;99.90;;;;;;5089307;28;20879;-66
2023/08/19 05:25:08;;;;;;;8.27;7.03;;;18.50;99.90;;;;;;5090243;28;20530;-67
2023/08/19 05:27:36;;;;;;;8.87;6.80;;;18.50;99.90;;;;;;5090002;28;20508;-67
2023/08/19 05:30:07;;;;;;;12.90;8.10;;;18.50;99.90;;;;;;5090122;28;20442;-67
2023/08/19 05:32:35;;;;;;;10.17;7.13;;;18.60;99.90;;;;;;5089088;28;21006;-67
2023/08/19 05:35:03;;;;;;;8.23;6.70;;;18.60;99.90;;;;;;5090144;28;20497;-67
2023/08/19 05:37:31;;;;;;;9.10;6.73;;;18.60;99.90;;;;;;5090206;28;20440;-66
2023/08/19 05:40:00;;;;;;;7.07;6.40;;;18.70;99.90;;;;;;5089967;28;20478;-67
2023/08/19 05:42:29;;;;;;;6.90;6.20;;;18.80;99.90;;;;;;5089130;28;20435;-67
2023/08/19 05:44:57;;;;;;;8.13;7.23;;;18.80;99.90;;;;;;5089347;28;20464;-67
2023/08/19 05:47:25;;;;;;;8.27;6.43;;;18.90;99.90;;;;;;5090132;28;20496;-66
2023/08/19 05:49:53;;;;;;;7.27;6.57;;;19.00;99.90;;;;;;5089841;28;20480;-67
2023/08/19 05:52:21;;;;;;;7.57;6.87;;;19.00;99.90;;;;;;5089515;28;20446;-66
2023/08/19 05:54:50;;;;;;;9.00;6.00;;;19.10;99.90;;;;;;5089828;28;20563;-66
2023/08/19 05:57:19;;;;;;;8.10;6.53;;;19.20;99.90;;;;;;5090027;28;20928;-67
2023/08/19 05:59:47;;;;;;;7.33;6.20;;;19.20;99.90;;;;;;5090315;28;20474;-66
2023/08/19 06:02:15;;;;;;;7.20;6.50;;;19.30;99.90;;;;;;5089644;28;20450;-64
2023/08/19 06:04:43;;;;;;;7.23;6.50;;;19.40;99.90;;;;;;5089545;28;20540;-67
2023/08/19 06:07:11;;;;;;;7.80;6.37;;;19.50;99.90;;;;;;5089246;28;20446;-66
2023/08/19 06:09:39;;;;;;;6.37;5.87;;;19.60;99.90;;;;;;5089879;28;20521;-66
2023/08/19 06:12:08;;;;;;;8.50;6.37;;;19.70;99.90;;;;;;5089486;28;20464;-66
2023/08/19 06:14:37;;;;;;;5.90;5.40;;;19.90;99.90;;;;;;5089035;28;20868;-67
2023/08/19 06:17:05;;;;;;;7.30;5.53;;;20.00;99.90;;;;;;5089523;28;20498;-67
2023/08/19 06:19:33;;;;;;;7.03;5.87;;;20.20;99.90;;;;;;5089410;28;20477;-66
2023/08/19 06:22:01;;;;;;;5.63;5.10;;;20.30;99.90;;;;;;5092078;28;21035;-64
2023/08/19 06:24:29;;;;;;;8.77;6.30;;;20.40;99.90;;;;;;5092596;28;20957;-67
2023/08/19 06:26:56;;;;;;;6.20;5.60;;;20.60;99.90;;;;;;5093664;28;20457;-67
2023/08/19 06:29:24;;;;;;;7.10;6.07;;;20.70;99.90;;;;;;5093539;28;20446;-66
2023/08/19 06:31:54;;;;;;;6.07;5.50;;;20.80;99.90;;;;;;5093412;28;20442;-67
2023/08/19 06:34:23;;;;;;;6.60;5.83;;;20.90;99.90;;;;;;5092633;28;20442;-67
2023/08/19 06:36:53;;;;;;;7.70;5.97;;;21.00;99.90;;;;;;5092899;28;20466;-67
2023/08/19 06:39:26;;;;;;;11.20;6.00;;;21.20;99.90;;;;;;5093434;28;20437;-67
2023/08/19 06:42:00;;;;;;;6.10;5.60;;;21.30;99.90;;;;;;5093224;28;20999;-67
2023/08/19 06:44:30;;;;;;;6.13;5.50;;;21.40;99.90;;;;;;5092240;28;20487;-67
2023/08/19 06:47:02;;;;;;;6.53;5.83;;;21.50;99.90;;;;;;5093142;28;20523;-67
2023/08/19 06:49:31;;;;;;;6.83;5.07;;;21.60;99.90;;;;;;5093514;28;20442;-67
2023/08/19 06:51:59;;;;;;;6.67;5.97;;;21.70;99.90;;;;;;5093283;28;20444;-67
2023/08/19 06:54:28;;;;;;;6.53;5.93;;;21.90;99.90;;;;;;5092079;28;20438;-67
2023/08/19 06:57:03;;;;;;;6.60;5.47;;;22.00;99.90;;;;;;5093061;28;20458;-67
2023/08/19 06:59:35;;;;;;;6.40;5.60;;;22.20;99.90;;;;;;5093318;28;20440;-68
2023/08/19 07:02:06;;;;;;;7.67;5.37;;;22.30;99.90;;;;;;5093030;28;20438;-66
2023/08/19 07:04:36;;;;;;;10.17;5.80;;;22.50;99.90;;;;;;5092061;28;21009;-67
2023/08/19 07:07:05;;;;;;;5.93;5.40;;;22.60;99.90;;;;;;5092649;28;20458;-66
2023/08/19 07:09:35;;;;;;;6.10;5.50;;;22.80;99.90;;;;;;5092486;28;20541;-66
2023/08/19 07:12:04;;;;;;;5.60;5.10;;;23.00;99.90;;;;;;5092422;28;20936;-67
2023/08/19 07:14:32;;;;;;;8.33;5.93;;;23.20;99.90;;;;;;5056380;28;20435;-67
2023/08/19 07:17:03;;;;;;;5.77;5.27;;;23.30;99.90;;;;;;5092637;28;20530;-67
2023/08/19 07:19:39;;;;;;;6.53;5.10;;;23.50;99.90;;;;;;5092377;28;20515;-66
2023/08/19 07:22:07;;;;;;;5.60;4.77;;;23.60;99.90;;;;;;5092172;28;20521;-67
2023/08/19 07:24:36;;;;;;;5.47;4.97;;;23.80;99.90;;;;;;5092014;28;20454;-67
2023/08/19 07:27:06;;;;;;;7.13;5.00;;;24.00;99.90;;;;;;5092436;28;20489;-66
2023/08/19 07:29:35;;;;;;;5.77;4.97;;;24.20;99.90;;;;;;5092239;28;20438;-67
2023/08/19 07:32:04;;;;;;;8.10;5.50;;;24.40;99.90;;;;;;5091865;28;20443;-67
2023/08/19 07:34:33;;;;;;;6.20;4.70;;;24.60;99.90;;;;;;5091215;28;20458;-67
2023/08/19 07:37:02;;;;;;;7.53;5.00;;;24.80;99.90;;;;;;5092435;28;20512;-67
2023/08/19 07:39:31;;;;;;;6.30;5.03;;;24.90;99.90;;;;;;5092103;28;20545;-66
2023/08/19 07:41:59;;;;;;;7.77;4.77;;;24.90;99.90;;;;;;5091958;28;20539;-65
2023/08/19 07:44:27;;;;;;;5.80;4.90;;;25.00;99.90;;;;;;5091240;28;20852;-66
2023/08/19 07:46:55;;;;;;;5.13;4.60;;;25.30;99.90;;;;;;5091894;28;20488;-67
2023/08/19 07:49:23;;;;;;;6.43;5.37;;;25.30;99.90;;;;;;5092033;28;20441;-67
2023/08/19 07:51:52;;;;;;;5.97;5.37;;;25.40;99.90;;;;;;5091509;28;20438;-67
2023/08/19 07:54:22;;;;;;;5.67;4.67;;;25.60;99.90;;;;;;5090975;28;20452;-66
2023/08/19 07:56:53;;;;;;;7.07;4.87;;;25.60;99.90;;;;;;5092226;28;20565;-67
2023/08/19 07:59:22;;;;;;;8.33;5.17;;;25.70;99.90;;;;;;5092000;28;20488;-67
2023/08/19 08:01:50;;;;;;;7.35;4.80;;;25.90;99.90;;;;;;5091544;28;20471;-67
2023/08/19 08:04:18;;;;;;;4.63;4.20;;;26.20;99.90;;;;;;5090788;28;20192;-66
2023/08/19 08:06:46;;;;;;;8.23;5.00;;;26.40;99.90;;;;;;5092537;28;20462;-66
2023/08/19 08:09:16;;;;;;;9.07;5.00;;;26.50;99.90;;;;;;5092310;28;20803;-67
2023/08/19 08:11:47;;;;;;;6.40;4.37;;;26.60;99.90;;;;;;5091665;28;20430;-66
2023/08/19 08:14:15;;;;;;;7.67;5.00;;;26.80;99.90;;;;;;5090619;28;20446;-67
2023/08/19 08:16:43;;;;;;;7.50;4.83;;;26.90;99.90;;;;;;5091598;28;20466;-67
2023/08/19 08:19:11;;;;;;;7.17;5.77;;;27.00;99.90;;;;;;5091510;28;20439;-66
2023/08/19 08:21:39;;;;;;;5.87;4.43;;;27.10;99.90;;;;;;5091100;28;20992;-67
2023/08/19 08:24:07;;;;;;;8.17;4.37;;;27.30;99.90;;;;;;5090246;28;20498;-67
2023/08/19 08:26:37;;;;;;;4.97;4.10;;;27.50;99.90;;;;;;5091157;28;20501;-67
2023/08/19 08:29:05;;;;;;;7.57;4.90;;;27.60;99.90;;;;;;5091390;28;20498;-67
2023/08/19 08:31:33;;;;;;;5.73;4.70;;;27.80;99.90;;;;;;5091140;28;20955;-67
2023/08/19 08:34:01;;;;;;;4.80;4.23;;;27.80;99.90;;;;;;5089965;28;20474;-67
2023/08/19 08:36:29;;;;;;;6.17;5.10;;;28.00;99.90;;;;;;5090784;28;20458;-67
2023/08/19 08:38:57;;;;;;;8.03;4.60;;;28.20;99.90;;;;;;5070770;28;20472;-67
2023/08/19 08:41:26;;;;;;;6.30;4.30;;;28.30;99.90;;;;;;5070836;28;20984;-67
2023/08/19 08:43:56;;;;;;;6.83;4.20;;;28.50;99.90;;;;;;5069183;28;20812;-66
2023/08/19 08:46:26;;;;;;;7.07;4.63;;;28.60;99.90;;;;;;5078028;28;20508;-67
2023/08/19 08:48:55;;;;;;;5.47;4.97;;;28.60;99.90;;;;;;5090823;28;20442;-65
2023/08/19 08:51:24;;;;;;;5.13;4.63;;;28.60;99.70;;;;;;5090542;28;20440;-67
2023/08/19 08:53:56;;;;;;;7.47;4.90;;;28.80;99.30;;;;;;5089611;28;20443;-67
2023/08/19 08:56:27;;;;;;;9.77;4.60;;;29.00;99.90;;;;;;5090777;28;20481;-67
2023/08/19 08:58:56;;;;;;;8.10;4.80;;;29.10;99.80;;;;;;5090805;28;20446;-66
2023/08/19 09:01:27;;;;;;;7.50;4.13;;;29.30;98.60;;;;;;5090586;28;20473;-65
2023/08/19 09:04:03;;;;;;;6.20;5.03;;;29.40;95.20;;;;;;5089006;28;20450;-66
2023/08/19 09:06:33;;;;;;;9.00;7.00;;;29.60;96.20;;;;;;5090237;28;20466;-68
2023/08/19 09:09:03;;;;;;;6.30;4.57;;;29.70;94.30;;;;;;5090408;28;20503;-67
2023/08/19 09:11:35;;;;;;;7.03;4.30;;;29.80;95.80;;;;;;5090675;28;20439;-67
2023/08/19 09:14:13;;;;;;;7.60;4.90;;;30.00;95.40;;;;;;5089333;28;20473;-67
2023/08/19 09:16:41;;;;;;;9.50;4.60;;;30.10;92.80;;;;;;5090355;28;20982;-67
2023/08/19 09:19:09;;;;;;;9.43;4.53;;;30.20;93.40;;;;;;5090396;28;20468;-68
2023/08/19 09:21:37;;;;;;;6.43;4.27;;;30.30;92.90;;;;;;5090996;28;20508;-67
2023/08/19 09:24:06;;;;;;;8.93;4.57;;;30.40;93.20;;;;;;5089310;28;20978;-67
2023/08/19 09:26:34;;;;;;;6.70;4.83;;;30.50;91.00;;;;;;5090172;28;20495;-67
2023/08/19 09:29:05;;;;;;;6.37;4.47;;;30.80;90.20;;;;;;5090141;28;20477;-67
2023/08/19 09:31:33;;;;;;;7.03;4.83;;;31.00;89.40;;;;;;5090459;28;20533;-68
2023/08/19 09:34:01;;;;;;;6.03;4.60;;;31.20;87.80;;;;;;5088611;28;20998;-67
2023/08/19 09:36:29;;;;;;;19.67;5.70;;;31.40;81.50;;;;;;5090207;28;20549;-68
2023/08/19 09:38:58;;;;;;;9.63;4.40;;;31.60;83.00;;;;;;5090105;28;20452;-68
2023/08/19 09:41:28;;;;;;;11.80;5.00;;;32.10;82.70;;;;;;5089904;28;20478;-68
2023/08/19 09:43:56;;;;;;;4.73;4.00;;;32.60;80.40;;;;;;5089139;28;20790;-68
2023/08/19 09:46:32;;;;;;;7.30;4.03;;;33.30;72.80;;;;;;5090096;28;20844;-68
2023/08/19 09:49:01;;;;;;;7.70;4.67;;;33.90;70.40;;;;;;5089976;28;20442;-68
2023/08/19 09:51:31;;;;;;;5.73;4.13;;;34.30;68.20;;;;;;5089602;28;20455;-66
2023/08/19 09:54:09;;;;;;;8.13;4.13;;;34.80;66.90;;;;;;5089716;28;20441;-68
2023/08/19 09:56:37;;;;;;;6.00;4.90;;;35.30;60.00;;;;;;5089267;28;20541;-68
2023/08/19 09:59:06;;;;;;;6.97;3.90;;;35.30;58.60;;;;;;5090319;28;20808;-67
2023/08/19 10:01:36;;;;;;;9.93;3.90;;;35.40;56.10;;;;;;5089928;28;20519;-67
2023/08/19 10:04:05;;;;;;;6.07;4.17;;;35.20;57.70;;;;;;5088988;28;20449;-68
2023/08/19 10:06:36;;;;;;;5.60;4.20;;;35.30;56.50;;;;;;5089639;28;20477;-68
2023/08/19 10:09:09;;;;;;;5.97;4.10;;;35.50;55.70;;;;;;5090167;28;20454;-68
2023/08/19 10:11:42;;;;;;;5.93;4.87;;;35.50;54.60;;;;;;5089743;28;20933;-68
2023/08/19 10:14:12;;;;;;;6.10;4.33;;;35.30;55.10;;;;;;5088556;28;20464;-68
2023/08/19 10:16:43;;;;;;;5.13;4.30;;;35.40;58.00;;;;;;5089290;28;20465;-68
2023/08/19 10:19:17;;;;;;;6.60;4.10;;;36.10;50.90;;;;;;5089500;28;20434;-68
2023/08/19 10:21:46;;;;;;;5.57;4.60;;;36.00;53.30;;;;;;5089895;28;20474;-68
2023/08/19 10:24:16;;;;;;;6.83;4.70;;;35.90;54.30;;;;;;5089107;28;20464;-68
2023/08/19 10:26:47;;;;;;;6.53;4.17;;;36.10;50.90;;;;;;5089789;28;20545;-67
2023/08/19 10:29:15;;;;;;;5.00;4.00;;;36.20;51.80;;;;;;5089314;28;20498;-68
2023/08/19 10:31:44;;;;;;;6.13;4.30;;;36.40;50.70;;;;;;5089669;28;20476;-68
2023/08/19 10:34:24;;;;;;;8.90;4.17;;;36.60;49.70;;;;;;5088488;28;20542;-67
2023/08/19 10:37:06;;;;;;;5.07;3.70;;;36.80;48.00;;;;;;5089656;28;20459;-68
2023/08/19 10:39:35;;;;;;;9.80;4.50;;;36.60;50.50;;;;;;5089505;28;20507;-68
2023/08/19 10:42:03;;;;;;;9.00;4.47;;;36.50;50.60;;;;;;5089038;28;20473;-68
2023/08/19 10:44:33;;;;;;;7.47;4.47;;;36.80;48.70;;;;;;5088773;28;20444;-67
2023/08/19 10:47:14;;;;;;;5.50;4.40;;;36.90;47.80;;;;;;5088976;28;20509;-67
2023/08/19 10:49:42;;;;;;;6.57;4.60;;;37.10;47.30;;;;;;5089751;28;20536;-66
2023/08/19 10:52:20;;;;;;;6.17;3.97;;;37.00;48.40;;;;;;5088879;28;20487;-68
2023/08/19 10:54:49;;;;;;;10.00;4.43;;;36.90;51.20;;;;;;5088819;28;21092;-68
2023/08/19 10:57:22;;;;;;;5.80;4.17;;;36.90;47.90;;;;;;5089558;28;20437;-68
2023/08/19 10:59:54;;;;;;;7.70;4.40;;;37.10;45.70;;;;;;5089223;28;20931;-68
2023/08/19 11:02:24;;;;;;;7.97;4.20;;;37.20;46.30;;;;;;5088118;28;20505;-66
2023/08/19 11:04:53;;;;;;;7.10;3.70;;;37.40;45.40;;;;;;5088783;28;20929;-68
2023/08/19 11:07:22;;;;;;;8.30;4.13;;;37.30;45.80;;;;;;5091065;28;20549;-68
2023/08/19 11:09:51;;;;;;;4.20;3.23;;;37.50;43.70;;;;;;5092759;28;20504;-68
2023/08/19 11:12:20;;;;;;;5.37;3.93;;;37.60;43.60;;;;;;5092380;28;20551;-67
2023/08/19 11:14:49;;;;;;;7.00;3.57;;;37.70;43.00;;;;;;5092226;28;20442;-68
2023/08/19 11:17:17;;;;;;;5.00;3.90;;;37.60;42.80;;;;;;5092571;28;20533;-67
2023/08/19 11:19:47;;;;;;;10.73;4.23;;;37.80;42.60;;;;;;5092365;28;20454;-67
2023/08/19 11:22:15;;;;;;;5.20;3.73;;;37.80;44.10;;;;;;5092206;28;20509;-67
2023/08/19 11:24:43;;;;;;;5.20;3.73;;;38.20;43.60;;;;;;5091718;28;20445;-67
2023/08/19 11:27:13;;;;;;;7.67;4.13;;;38.40;43.20;;;;;;5092420;28;20439;-67
2023/08/19 11:29:41;;;;;;;14.47;4.30;;;38.70;42.50;;;;;;5092390;28;20448;-67
2023/08/19 11:32:09;;;;;;;21.40;4.80;;;39.10;41.20;;;;;;5092212;28;20442;-68
2023/08/19 11:34:37;;;;;;;198.87;22.80;;;39.40;42.50;;;;;;5091848;28;20442;-68
2023/08/19 11:37:06;;;;;;;9.90;4.17;;;39.80;40.40;;;;;;5092231;28;20892;-67
2023/08/19 11:39:34;;;;;;;12.33;4.20;;;40.00;40.00;;;;;;5092197;28;20441;-67
2023/08/19 11:42:03;;;;;;;5.03;3.20;;;40.20;39.90;;;;;;5091934;28;20442;-66
2023/08/19 11:44:32;;;;;;;6.47;4.37;;;39.80;41.60;;;;;;5091151;28;20944;-68
2023/08/19 11:47:00;;;;;;;9.53;4.37;;;39.50;43.00;;;;;;5092385;28;20462;-66
2023/08/19 11:49:29;;;;;;;6.77;4.57;;;39.30;40.60;;;;;;5092258;28;20524;-68
2023/08/19 11:51:58;;;;;;;4.20;3.50;;;39.00;41.70;;;;;;5091890;28;20940;-68
2023/08/19 11:54:27;;;;;;;6.63;4.20;;;38.90;40.90;;;;;;5091343;28;20850;-68
2023/08/19 11:56:59;;;;;;;6.90;3.60;;;38.80;41.10;;;;;;5092200;28;20983;-66
2023/08/19 11:59:31;;;;;;;5.50;3.73;;;38.80;41.60;;;;;;5092319;28;20453;-67
2023/08/19 12:02:03;;;;;;;6.93;3.63;;;39.20;41.50;;;;;;5091713;28;20439;-67
2023/08/19 12:04:33;;;;;;;7.23;4.10;;;39.20;41.60;;;;;;5091414;28;20508;-68
2023/08/19 12:07:04;;;;;;;4.93;3.83;;;39.20;40.00;;;;;;5092080;28;20900;-67
2023/08/19 12:09:36;;;;;;;5.53;3.67;;;39.20;39.70;;;;;;5094307;28;20460;-68
2023/08/19 12:12:09;;;;;;;8.40;4.17;;;39.40;39.20;;;;;;5091733;28;20442;-67
2023/08/19 12:14:37;;;;;;;4.70;3.53;;;39.30;38.70;;;;;;5091176;28;20442;-67
2023/08/19 12:17:06;;;;;;;5.67;4.00;;;39.20;38.90;;;;;;5091358;28;20502;-67
2023/08/19 12:19:35;;;;;;;6.93;4.30;;;39.40;38.40;;;;;;5090839;28;20446;-67
2023/08/19 12:22:03;;;;;;;8.33;3.50;;;39.50;38.90;;;;;;5092205;28;20963;-68
2023/08/19 12:24:33;;;;;;;7.00;3.80;;;39.50;38.00;;;;;;5091482;28;20508;-67
2023/08/19 12:27:01;;;;;;;7.37;3.80;;;39.50;38.50;;;;;;5091542;28;20556;-68
2023/08/19 12:29:29;;;;;;;5.77;4.37;;;39.40;39.10;;;;;;5091479;28;20443;-67
2023/08/19 12:31:57;;;;;;;4.90;3.80;;;39.00;40.90;;;;;;5090887;28;20438;-67
2023/08/19 12:34:25;;;;;;;5.77;3.77;;;38.80;39.30;;;;;;5090207;28;20822;-67
2023/08/19 12:36:54;;;;;;;8.20;4.00;;;38.80;39.90;;;;;;5091282;28;20458;-68
2023/08/19 12:39:25;;;;;;;5.73;4.00;;;38.80;39.40;;;;;;5091244;28;20929;-67
2023/08/19 12:41:54;;;;;;;5.90;4.20;;;39.10;38.90;;;;;;5091106;28;20439;-67
2023/08/19 12:44:22;;;;;;;6.20;4.20;;;39.70;39.10;;;;;;5089843;28;20484;-67
2023/08/19 12:46:51;;;;;;;7.47;3.93;;;40.40;37.50;;;;;;5090742;28;20476;-67
2023/08/19 12:49:19;;;;;;;5.40;4.60;;;39.60;37.70;;;;;;5090831;28;20869;-67
2023/08/19 12:51:47;;;;;;;6.10;4.23;;;39.50;37.90;;;;;;5090955;28;20539;-67
2023/08/19 12:54:16;;;;;;;7.07;3.87;;;39.70;38.20;;;;;;5089907;28;20430;-67
2023/08/19 12:56:44;;;;;;;5.30;3.87;;;39.80;37.10;;;;;;5090698;28;20462;-68